LFQG

Nevers-Fourchambault Airport

Airport
ICAO code
LFQG
IATA Code
NVS
Summary
ICAO Region
EUR
ICAO Territory
Location

, Bourgogne

Serving
Nevers
Elevation
602 ft
Coordinates
47° 0' 9" N , 3° 6' 48" E
Metar
Observation
LFQG 091800Z AUTO 02006KT 9999 OVC015 M00/M02 Q1004
Station
Nevers
Date/Time
2022-12-09 18:00:00
Wind direction
20°
Wind speed
06 kts
Lowest cloud amount
overcast
Temperature
-0°C
Dew point
-2°C
Humidity
86%
QNH
1004 hPa
Weather condition
n/a

Runways

Designator Length Width Surface Rops
12/30 1630 30 ASP No/No

Airport map

Aerial View

SKYbrary Partners:

Safety knowledge contributed by: